| time (UTC) | temp F | wind direction | speed MPH | gust MPH | rain 1hr in | rain 24hr in | rain mn in | humidity % | barometer mb |
| 20260510093059 | 33 | 303 | 0.0 | 3.0 | 0.00 | 0.00 | 0.00 | 77 | 1012.2 |
| 20260510091551 | 35 | 313 | 1.0 | 4.0 | 0.00 | 0.00 | 0.00 | 76 | 1011.9 |
| 20260510090056 | 34 | 19 | 1.0 | 6.0 | 0.00 | 0.00 | 0.00 | 77 | 1011.8 |
| 20260510084607 | 34 | 271 | 2.0 | 4.0 | 0.00 | 0.01 | 0.00 | 79 | 1011.1 |
| 20260510083045 | 32 | 270 | 0.0 | 2.0 | 0.00 | 0.01 | 0.00 | 81 | 1011.1 |
| 20260510081551 | 32 | 268 | 1.0 | 3.0 | 0.00 | 0.01 | 0.00 | 82 | 1011.0 |
| 20260510080044 | 32 | 294 | 2.0 | 4.0 | 0.00 | 0.01 | 0.00 | 80 | 1010.9 |
| 20260510074538 | 32 | 265 | 0.0 | 2.0 | 0.00 | 0.05 | 0.00 | 82 | 1010.6 |
| 20260510073037 | 32 | 244 | 0.0 | 1.0 | 0.00 | 0.05 | 0.00 | 81 | 1010.6 |
| 20260510071543 | 33 | 258 | 0.0 | 2.0 | 0.00 | 0.05 | 0.00 | 81 | 1010.7 |
| 20260510070039 | 33 | 282 | 1.0 | 2.0 | 0.00 | 0.05 | 0.00 | 79 | 1010.7 |
| 20260510064531 | 33 | 277 | 1.0 | 2.0 | 0.00 | 0.05 | 0.00 | 77 | 1010.5 |
| 20260510063029 | 33 | 258 | 0.0 | 1.0 | 0.00 | 0.05 | 0.00 | 78 | 1010.4 |
| 20260510061529 | 33 | 247 | 0.0 | 1.0 | 0.00 | 0.05 | 0.00 | 78 | 1010.4 |
| 20260510060026 | 34 | 245 | 0.0 | 2.0 | 0.00 | 0.05 | 0.00 | 77 | 1010.4 |
| 20260510054523 | 35 | 254 | 0.0 | 2.0 | 0.00 | 0.05 | 0.00 | 76 | 1010.2 |
| 20260510053024 | 35 | 238 | 0.0 | 1.0 | 0.00 | 0.05 | 0.00 | 74 | 1010.2 |
| 20260510051515 | 37 | 263 | 0.0 | 3.0 | 0.00 | 0.05 | 0.00 | 72 | 1010.0 |
| 20260510050011 | 37 | 265 | 1.0 | 3.0 | 0.00 | 0.05 | 0.00 | 72 | 1009.9 |
| 20260510044516 | 38 | 247 | 1.0 | 3.0 | 0.00 | 0.05 | 0.05 | 71 | 1010.0 |
| 20260510043008 | 38 | 258 | 1.0 | 3.0 | 0.00 | 0.05 | 0.05 | 69 | 1009.9 |
| 20260510041504 | 39 | 260 | 1.0 | 4.0 | 0.00 | 0.05 | 0.05 | 68 | 1009.8 |
| 20260510040001 | 40 | 265 | 1.0 | 3.0 | 0.00 | 0.05 | 0.05 | 67 | 1009.8 |
| 20260510034602 | 41 | 262 | 1.0 | 2.0 | 0.00 | 0.05 | 0.05 | 64 | 1009.6 |
| 20260510033159 | 43 | 272 | 0.0 | 1.0 | 0.00 | 0.05 | 0.05 | 59 | 1009.5 |
| 20260510031622 | 45 | 274 | 0.0 | 2.0 | 0.00 | 0.05 | 0.05 | 55 | 1009.4 |
| 20260510024555 | 48 | 337 | 0.0 | 0.0 | 0.00 | 0.05 | 0.05 | 49 | 1009.1 |
| 20260510023053 | 49 | 337 | 0.0 | 0.0 | 0.00 | 0.05 | 0.05 | 48 | 1008.8 |
| 20260510021551 | 50 | 337 | 0.0 | 1.0 | 0.00 | 0.05 | 0.05 | 46 | 1008.7 |
| 20260510020050 | 51 | 336 | 0.0 | 2.0 | 0.00 | 0.05 | 0.05 | 45 | 1008.4 |
| 20260510014549 | 53 | 332 | 1.0 | 3.0 | 0.00 | 0.05 | 0.05 | 41 | 1008.2 |
| 20260510013046 | 56 | 331 | 2.0 | 3.0 | 0.00 | 0.05 | 0.05 | 37 | 1008.1 |
| 20260510011545 | 58 | 333 | 3.0 | 7.0 | 0.00 | 0.05 | 0.05 | 36 | 1007.9 |
| 20260510010042 | 58 | 321 | 6.0 | 9.0 | 0.00 | 0.05 | 0.05 | 34 | 1007.8 |
| 20260510004542 | 59 | 341 | 8.0 | 13.0 | 0.00 | 0.05 | 0.05 | 34 | 1007.8 |
| 20260510003040 | 59 | 307 | 6.0 | 12.0 | 0.00 | 0.05 | 0.05 | 34 | 1007.6 |
| 20260510001542 | 59 | 316 | 10.0 | 16.0 | 0.00 | 0.05 | 0.05 | 33 | 1007.6 |
| 20260510000058 | 59 | 322 | 10.0 | 13.0 | 0.00 | 0.05 | 0.05 | 32 | 1007.6 |
| 20260509234637 | 60 | 332 | 8.0 | 15.0 | 0.00 | 0.05 | 0.05 | 33 | 1007.5 |
| 20260509233036 | 60 | 329 | 12.0 | 19.0 | 0.00 | 0.05 | 0.05 | 32 | 1007.4 |
| 20260509231534 | 59 | 319 | 8.0 | 19.0 | 0.00 | 0.05 | 0.05 | 32 | 1007.4 |
| 20260509230036 | 59 | 312 | 9.0 | 20.0 | 0.00 | 0.05 | 0.05 | 31 | 1007.2 |
| 20260509224533 | 59 | 327 | 14.0 | 21.0 | 0.00 | 0.05 | 0.05 | 30 | 1007.3 |
| 20260509223033 | 59 | 322 | 15.0 | 21.0 | 0.00 | 0.05 | 0.05 | 32 | 1007.2 |
| 20260509221531 | 59 | 314 | 10.0 | 19.0 | 0.00 | 0.05 | 0.05 | 32 | 1007.2 |
| 20260509220030 | 59 | 288 | 8.0 | 17.0 | 0.00 | 0.05 | 0.05 | 33 | 1007.2 |
| 20260509214532 | 59 | 313 | 13.0 | 19.0 | 0.00 | 0.05 | 0.05 | 33 | 1007.2 |
| 20260509213029 | 59 | 302 | 9.0 | 19.0 | 0.00 | 0.05 | 0.05 | 33 | 1007.3 |
| 20260509211527 | 59 | 322 | 10.0 | 21.0 | 0.00 | 0.05 | 0.05 | 33 | 1007.3 |
| 20260509210037 | 59 | 335 | 13.0 | 20.0 | 0.00 | 0.05 | 0.05 | 34 | 1007.3 |
| 20260509204533 | 58 | 334 | 15.0 | 21.0 | 0.00 | 0.05 | 0.05 | 33 | 1007.3 |
| 20260509203024 | 58 | 312 | 7.0 | 19.0 | 0.00 | 0.05 | 0.05 | 33 | 1007.3 |
| 20260509201622 | 58 | 305 | 13.0 | 21.0 | 0.00 | 0.05 | 0.05 | 34 | 1007.3 |
| 20260509200021 | 58 | 329 | 5.0 | 17.0 | 0.00 | 0.05 | 0.05 | 34 | 1007.2 |
| 20260509194521 | 57 | 327 | 14.0 | 22.0 | 0.00 | 0.05 | 0.05 | 33 | 1007.3 |
| 20260509193017 | 57 | 340 | 10.0 | 22.0 | 0.00 | 0.05 | 0.05 | 36 | 1007.1 |
| 20260509191519 | 57 | 346 | 14.0 | 22.0 | 0.00 | 0.05 | 0.05 | 37 | 1007.2 |
| 20260509190014 | 56 | 334 | 9.0 | 19.0 | 0.00 | 0.05 | 0.05 | 38 | 1007.1 |
| 20260509184517 | 56 | 336 | 9.0 | 17.0 | 0.00 | 0.05 | 0.05 | 38 | 1007.0 |
| 20260509183013 | 56 | 294 | 10.0 | 19.0 | 0.00 | 0.05 | 0.05 | 39 | 1007.1 |
| 20260509181511 | 55 | 300 | 13.0 | 20.0 | 0.00 | 0.05 | 0.05 | 40 | 1007.2 |
| 20260509180013 | 55 | 327 | 8.0 | 18.0 | 0.00 | 0.05 | 0.05 | 41 | 1007.2 |
| 20260509174509 | 54 | 316 | 16.0 | 22.0 | 0.00 | 0.05 | 0.05 | 42 | 1007.0 |
| 20260509173008 | 54 | 308 | 11.0 | 20.0 | 0.00 | 0.05 | 0.05 | 45 | 1007.0 |
| 20260509171505 | 53 | 339 | 8.0 | 20.0 | 0.00 | 0.05 | 0.05 | 42 | 1006.9 |
| 20260509170005 | 53 | 360 | 15.0 | 22.0 | 0.00 | 0.05 | 0.05 | 45 | 1006.7 |
| 20260509164503 | 52 | 360 | 10.0 | 14.0 | 0.00 | 0.05 | 0.05 | 46 | 1006.7 |
| 20260509163001 | 52 | 355 | 11.0 | 18.0 | 0.00 | 0.05 | 0.05 | 47 | 1006.7 |
| 20260509161604 | 51 | 336 | 8.0 | 18.0 | 0.00 | 0.05 | 0.05 | 49 | 1006.4 |
| 20260509160058 | 50 | 354 | 13.0 | 18.0 | 0.00 | 0.05 | 0.05 | 49 | 1006.3 |
| 20260509154556 | 50 | 5 | 10.0 | 16.0 | 0.00 | 0.05 | 0.05 | 51 | 1006.2 |
| 20260509153054 | 49 | 8 | 9.0 | 15.0 | 0.00 | 0.05 | 0.05 | 57 | 1006.0 |
| 20260509151559 | 49 | 25 | 10.0 | 17.0 | 0.00 | 0.05 | 0.05 | 57 | 1005.9 |
| 20260509150050 | 48 | 8 | 11.0 | 16.0 | 0.00 | 0.05 | 0.05 | 61 | 1005.6 |
| 20260509144605 | 47 | 7 | 9.0 | 16.0 | 0.00 | 0.05 | 0.05 | 65 | 1005.4 |
| 20260509143105 | 46 | 30 | 10.0 | 15.0 | 0.00 | 0.05 | 0.05 | 67 | 1005.2 |
| 20260509141545 | 46 | 351 | 8.0 | 14.0 | 0.00 | 0.05 | 0.05 | 71 | 1005.1 |
| 20260509140143 | 45 | 343 | 9.0 | 13.0 | 0.00 | 0.05 | 0.05 | 72 | 1004.8 |
| 20260509134601 | 45 | 7 | 6.0 | 13.0 | 0.00 | 0.05 | 0.05 | 77 | 1004.7 |
| 20260509133045 | 44 | 2 | 8.0 | 13.0 | 0.00 | 0.05 | 0.05 | 79 | 1004.3 |
| 20260509131537 | 43 | 21 | 8.0 | 14.0 | 0.00 | 0.05 | 0.05 | 81 | 1003.9 |
| 20260509130046 | 43 | 6 | 7.0 | 16.0 | 0.00 | 0.05 | 0.05 | 83 | 1003.5 |
| 20260509124535 | 42 | 345 | 9.0 | 13.0 | 0.00 | 0.05 | 0.05 | 85 | 1003.3 |
| 20260509123030 | 42 | 336 | 9.0 | 14.0 | 0.00 | 0.05 | 0.05 | 85 | 1002.8 |
| 20260509121540 | 41 | 334 | 5.0 | 9.0 | 0.00 | 0.05 | 0.05 | 82 | 1002.6 |
| 20260509120026 | 40 | 319 | 4.0 | 7.0 | 0.00 | 0.05 | 0.05 | 82 | 1002.4 |
| 20260509114530 | 40 | 330 | 4.0 | 6.0 | 0.00 | 0.05 | 0.05 | 82 | 1002.1 |
| 20260509113024 | 40 | 327 | 3.0 | 6.0 | 0.00 | 0.05 | 0.05 | 79 | 1002.0 |
| 20260509111514 | 41 | 321 | 3.0 | 5.0 | 0.00 | 0.05 | 0.05 | 78 | 1001.9 |
| 20260509110010 | 42 | 328 | 4.0 | 7.0 | 0.00 | 0.05 | 0.05 | 78 | 1001.6 |
| 20260509104506 | 43 | 329 | 5.0 | 9.0 | 0.00 | 0.05 | 0.05 | 76 | 1001.4 |
| 20260509103003 | 43 | 333 | 4.0 | 8.0 | 0.00 | 0.05 | 0.05 | 76 | 1001.2 |
| 20260509101624 | 44 | 336 | 5.0 | 9.0 | 0.00 | 0.05 | 0.05 | 75 | 1001.0 |
| 20260509100058 | 45 | 334 | 5.0 | 9.0 | 0.00 | 0.05 | 0.05 | 76 | 1000.7 |
| 20260509094602 | 45 | 343 | 6.0 | 10.0 | 0.00 | 0.05 | 0.05 | 77 | 1000.4 |